createdAt,value
2017-12-25T00:01:29.479Z,11.40
2017-12-25T00:03:57.124Z,11.40
2017-12-25T00:06:24.803Z,11.40
2017-12-25T00:08:52.409Z,11.40
2017-12-25T00:11:20.027Z,11.50
2017-12-25T00:13:47.663Z,11.50
2017-12-25T00:16:15.260Z,11.40
2017-12-25T00:18:42.869Z,11.50
2017-12-25T00:21:10.472Z,11.40
2017-12-25T00:23:38.076Z,11.40
2017-12-25T00:26:05.672Z,11.40
2017-12-25T00:28:33.274Z,11.40
2017-12-25T00:31:01.632Z,11.50
2017-12-25T00:33:29.304Z,11.50
2017-12-25T00:35:56.890Z,11.50
2017-12-25T00:38:25.272Z,11.50
2017-12-25T00:40:53.718Z,11.50
2017-12-25T00:43:21.332Z,11.50
2017-12-25T00:45:48.943Z,11.50
2017-12-25T00:48:16.603Z,11.50
2017-12-25T00:50:44.211Z,11.50
2017-12-25T00:53:11.795Z,11.50
2017-12-25T00:55:39.399Z,11.60
2017-12-25T00:58:06.984Z,11.60
2017-12-25T01:00:35.399Z,11.60
2017-12-25T01:03:02.980Z,11.60
2017-12-25T01:05:30.661Z,11.60
2017-12-25T01:07:58.318Z,11.60
2017-12-25T01:10:25.922Z,11.60
2017-12-25T01:12:53.548Z,11.60
2017-12-25T01:15:21.164Z,11.60
2017-12-25T01:17:48.773Z,11.50
2017-12-25T01:20:16.383Z,11.50
2017-12-25T01:22:43.981Z,11.60
2017-12-25T01:25:11.586Z,11.60
2017-12-25T01:27:39.252Z,11.60
2017-12-25T01:30:07.590Z,11.60
2017-12-25T01:32:35.194Z,11.60
2017-12-25T01:35:02.784Z,11.50
2017-12-25T01:37:30.397Z,11.50
2017-12-25T01:39:58.860Z,11.50
2017-12-25T01:42:26.519Z,11.50
2017-12-25T01:44:54.103Z,11.50
2017-12-25T01:47:22.484Z,11.50
2017-12-25T01:49:51.043Z,11.50
2017-12-25T01:52:18.703Z,11.50
2017-12-25T01:54:46.287Z,11.50
2017-12-25T02:00:28.758Z,11.50
2017-12-25T02:02:56.363Z,11.50
2017-12-25T02:08:39.716Z,11.50
2017-12-25T02:11:07.376Z,11.50
2017-12-25T02:13:34.987Z,11.50
2017-12-25T02:16:02.596Z,11.50
2017-12-25T02:18:30.977Z,11.60
2017-12-25T02:20:58.572Z,11.60
2017-12-25T02:23:26.184Z,11.60
2017-12-25T02:25:53.777Z,11.60
2017-12-25T02:28:22.244Z,11.60
2017-12-25T02:30:50.601Z,11.60
2017-12-25T02:33:18.220Z,11.60
2017-12-25T02:35:45.815Z,11.60
2017-12-25T02:38:13.433Z,11.60
2017-12-25T02:40:41.812Z,11.70
2017-12-25T02:43:10.168Z,11.70
2017-12-25T02:45:37.782Z,11.70
2017-12-25T02:48:05.395Z,11.70
2017-12-25T02:50:33.000Z,11.60
2017-12-25T02:53:00.585Z,11.60
2017-12-25T02:55:28.201Z,11.50
2017-12-25T02:57:55.789Z,11.60
2017-12-25T03:00:23.400Z,11.50
2017-12-25T03:02:50.989Z,11.50
2017-12-25T03:05:19.363Z,11.50
2017-12-25T03:07:47.711Z,11.50
2017-12-25T03:10:15.296Z,11.50
2017-12-25T03:12:43.760Z,11.50
2017-12-25T03:15:11.416Z,11.50
2017-12-25T03:17:39.040Z,11.50
2017-12-25T03:20:06.627Z,11.50
2017-12-25T03:22:34.236Z,11.50
2017-12-25T03:25:02.688Z,11.50
2017-12-25T03:27:30.344Z,11.50
2017-12-25T03:29:57.928Z,11.50
2017-12-25T03:32:26.299Z,11.40
2017-12-25T03:34:54.656Z,11.40
2017-12-25T03:37:22.262Z,11.40
2017-12-25T03:39:49.850Z,11.40
2017-12-25T03:42:17.552Z,11.40
2017-12-25T03:44:45.216Z,11.30
2017-12-25T03:47:12.875Z,11.30
2017-12-25T03:49:40.480Z,11.20
2017-12-25T03:52:08.092Z,11.20
2017-12-25T03:54:35.691Z,11.20
2017-12-25T03:57:04.045Z,11.20
2017-12-25T03:59:32.515Z,11.20
2017-12-25T04:02:00.106Z,11.20
2017-12-25T04:04:28.477Z,11.20
2017-12-25T04:06:56.844Z,11.20
2017-12-25T04:09:24.463Z,11.10
2017-12-25T04:11:52.043Z,11.20
2017-12-25T04:14:19.661Z,11.20
2017-12-25T04:16:47.292Z,11.10
2017-12-25T04:19:14.947Z,11.10
2017-12-25T04:21:42.531Z,11.10
2017-12-25T04:24:10.908Z,11.00
2017-12-25T04:26:39.259Z,11.10
2017-12-25T04:29:06.844Z,11.00
2017-12-25T04:31:35.308Z,11.00
2017-12-25T04:34:03.691Z,11.00
2017-12-25T04:36:31.295Z,11.00
2017-12-25T04:38:58.884Z,11.00
2017-12-25T04:41:26.580Z,11.10
2017-12-25T04:43:54.244Z,11.10
2017-12-25T04:46:21.901Z,11.10
2017-12-25T04:48:49.489Z,11.10
2017-12-25T04:51:17.943Z,11.10
2017-12-25T04:53:45.611Z,11.10
2017-12-25T04:56:13.215Z,11.10
2017-12-25T04:58:40.836Z,11.10
2017-12-25T05:01:08.492Z,11.00
2017-12-25T05:03:36.161Z,11.00
2017-12-25T05:06:03.747Z,11.00
2017-12-25T05:08:32.119Z,11.00
2017-12-25T05:11:00.458Z,11.00
2017-12-25T05:13:28.131Z,11.00
2017-12-25T05:15:55.714Z,11.00
2017-12-25T05:18:24.179Z,11.00
2017-12-25T05:20:51.773Z,11.00
2017-12-25T05:23:20.152Z,11.00
2017-12-25T05:25:48.505Z,11.00
2017-12-25T05:28:16.118Z,11.00
2017-12-25T05:30:43.728Z,11.00
2017-12-25T05:33:11.389Z,11.00
2017-12-25T05:35:39.049Z,11.00
2017-12-25T05:38:06.660Z,11.00
2017-12-25T05:40:34.277Z,11.00
2017-12-25T05:43:01.931Z,11.00
2017-12-25T05:45:29.597Z,11.00
2017-12-25T05:47:57.185Z,10.90
2017-12-25T05:50:25.641Z,10.90
2017-12-25T05:52:53.300Z,10.80
2017-12-25T05:55:20.905Z,10.90
2017-12-25T05:57:48.492Z,10.80
2017-12-25T06:00:16.183Z,10.80
2017-12-25T06:02:44.536Z,10.80
2017-12-25T06:05:12.236Z,10.80
2017-12-25T06:07:39.824Z,10.80
2017-12-25T06:10:07.436Z,10.90
2017-12-25T06:12:35.120Z,10.90
2017-12-25T06:15:02.786Z,10.80
2017-12-25T06:17:30.371Z,10.80
2017-12-25T06:19:58.716Z,10.80
2017-12-25T06:22:26.320Z,10.80
2017-12-25T06:24:53.960Z,10.80
2017-12-25T06:27:22.424Z,10.80
2017-12-25T06:29:50.093Z,10.80
2017-12-25T06:32:17.755Z,10.80
2017-12-25T06:34:45.344Z,10.80
2017-12-25T06:37:13.726Z,10.80
2017-12-25T06:39:41.357Z,10.80
2017-12-25T06:42:08.975Z,10.80
2017-12-25T06:44:36.557Z,10.80
2017-12-25T06:47:04.235Z,10.80
2017-12-25T06:49:31.832Z,10.80
2017-12-25T06:52:00.285Z,10.80
2017-12-25T06:54:27.872Z,10.70
2017-12-25T06:56:56.324Z,10.70
2017-12-25T06:59:23.989Z,10.70
2017-12-25T07:01:51.648Z,10.70
2017-12-25T07:04:19.251Z,10.70
2017-12-25T07:06:46.877Z,10.70
2017-12-25T07:09:14.489Z,10.70
2017-12-25T07:11:42.096Z,10.70
2017-12-25T07:14:09.765Z,10.70
2017-12-25T07:16:37.420Z,10.70
2017-12-25T07:19:05.084Z,10.70
2017-12-25T07:21:32.677Z,10.70
2017-12-25T07:24:00.276Z,10.70
2017-12-25T07:26:27.854Z,10.70
2017-12-25T07:28:55.528Z,10.70
2017-12-25T07:31:23.193Z,10.70
2017-12-25T07:33:50.823Z,10.70
2017-12-25T07:36:18.571Z,10.70
2017-12-25T07:38:47.004Z,10.80
2017-12-25T07:41:14.617Z,10.70
2017-12-25T07:43:42.205Z,10.70
2017-12-25T07:46:09.813Z,10.70
2017-12-25T07:48:38.166Z,10.70
2017-12-25T07:51:05.784Z,10.70
2017-12-25T07:53:33.372Z,10.80
2017-12-25T07:56:00.981Z,10.80
2017-12-25T07:58:28.612Z,10.80
2017-12-25T08:00:56.232Z,10.90
2017-12-25T08:03:23.816Z,10.80
2017-12-25T08:05:51.429Z,10.90
2017-12-25T08:08:19.017Z,10.90
2017-12-25T08:10:46.720Z,10.90
2017-12-25T08:13:14.317Z,10.90
2017-12-25T08:15:41.896Z,10.90
2017-12-25T08:18:09.509Z,10.90
2017-12-25T08:20:37.092Z,10.90
2017-12-25T08:23:05.781Z,10.90
2017-12-25T08:25:33.367Z,10.90
2017-12-25T08:28:01.073Z,10.80
2017-12-25T08:30:28.665Z,10.90
2017-12-25T08:32:57.045Z,10.90
2017-12-25T08:35:25.413Z,10.90
2017-12-25T08:37:53.881Z,10.90
2017-12-25T08:40:21.535Z,10.90
2017-12-25T08:42:49.205Z,10.90
2017-12-25T08:45:16.922Z,11.00
2017-12-25T08:47:45.235Z,11.00
2017-12-25T08:50:12.909Z,10.90
2017-12-25T08:52:40.569Z,10.90
2017-12-25T08:55:08.184Z,10.90
2017-12-25T08:57:35.776Z,10.90
2017-12-25T09:00:03.396Z,10.80
2017-12-25T09:02:30.982Z,10.90
2017-12-25T09:04:58.671Z,10.90
2017-12-25T09:07:26.342Z,10.90
2017-12-25T09:09:54.000Z,10.90
2017-12-25T09:12:21.591Z,10.90
2017-12-25T09:14:49.965Z,10.90
2017-12-25T09:17:18.317Z,10.90
2017-12-25T09:19:45.929Z,10.90
2017-12-25T09:22:13.539Z,10.90
2017-12-25T09:24:41.320Z,10.90
2017-12-25T09:27:08.985Z,10.90
2017-12-25T09:29:37.345Z,11.00
2017-12-25T09:32:05.732Z,11.00
2017-12-25T09:34:33.387Z,10.90
2017-12-25T09:37:00.994Z,11.00
2017-12-25T09:39:28.581Z,11.00
2017-12-25T09:41:56.192Z,11.00
2017-12-25T09:44:24.665Z,11.00
2017-12-25T09:46:53.780Z,11.00
2017-12-25T09:49:22.128Z,11.00
2017-12-25T09:51:49.732Z,11.00
2017-12-25T09:54:17.364Z,11.00
2017-12-25T09:56:44.963Z,11.00
2017-12-25T09:59:12.553Z,11.10
2017-12-25T10:01:40.165Z,11.10
2017-12-25T10:04:08.624Z,11.00
2017-12-25T10:06:36.209Z,11.00
2017-12-25T10:09:04.585Z,11.00
2017-12-25T10:11:32.932Z,11.00
2017-12-25T10:14:00.608Z,11.00
2017-12-25T10:16:28.956Z,11.00
2017-12-25T10:18:56.657Z,11.00
2017-12-25T10:21:24.245Z,11.00
2017-12-25T10:23:51.853Z,11.00
2017-12-25T10:26:19.541Z,11.00
2017-12-25T10:28:47.205Z,11.00
2017-12-25T10:31:14.791Z,10.90
2017-12-25T10:33:43.161Z,10.90
2017-12-25T10:36:11.517Z,11.00
2017-12-25T10:38:39.119Z,11.00
2017-12-25T10:41:06.701Z,11.00
2017-12-25T10:43:34.404Z,11.00
2017-12-25T10:46:02.063Z,11.10
2017-12-25T10:48:29.732Z,11.00
2017-12-25T10:50:57.400Z,11.00
2017-12-25T10:53:24.988Z,11.00
2017-12-25T10:55:52.597Z,11.00
2017-12-25T10:58:20.180Z,11.00
2017-12-25T11:00:53.544Z,11.00
2017-12-25T11:03:21.161Z,11.00
2017-12-25T11:05:49.540Z,10.90
2017-12-25T11:08:18.004Z,11.00
2017-12-25T11:10:45.624Z,10.90
2017-12-25T11:13:13.215Z,10.90
2017-12-25T11:15:40.859Z,10.90
2017-12-25T11:18:08.539Z,10.90
2017-12-25T11:20:36.206Z,10.90
2017-12-25T11:23:03.792Z,11.00
2017-12-25T11:25:32.136Z,11.00
2017-12-25T11:27:59.955Z,11.00
2017-12-25T11:30:27.544Z,11.10
2017-12-25T11:32:55.236Z,11.10
2017-12-25T11:35:22.827Z,11.10
2017-12-25T11:37:51.208Z,11.00
2017-12-25T11:40:19.655Z,11.00
2017-12-25T11:42:47.265Z,11.00
2017-12-25T11:45:14.875Z,11.00
2017-12-25T11:47:42.471Z,10.90
2017-12-25T11:50:10.819Z,10.90
2017-12-25T11:52:38.423Z,10.90
2017-12-25T11:55:06.043Z,10.90
2017-12-25T11:57:33.656Z,10.90
2017-12-25T12:00:01.273Z,10.90
2017-12-25T12:02:29.657Z,11.00
2017-12-25T12:04:57.265Z,11.00
2017-12-25T12:07:24.867Z,11.00
2017-12-25T12:09:52.463Z,11.10
2017-12-25T12:12:20.812Z,11.00
2017-12-25T12:14:48.424Z,11.00
2017-12-25T12:17:16.037Z,11.00
2017-12-25T12:19:43.639Z,11.00
2017-12-25T12:22:11.225Z,11.00
2017-12-25T12:24:38.924Z,11.00
2017-12-25T12:27:06.521Z,11.00
2017-12-25T12:29:34.145Z,11.00
2017-12-25T12:32:01.767Z,11.00
2017-12-25T12:34:29.472Z,11.00
2017-12-25T12:36:57.134Z,10.90
2017-12-25T12:39:25.619Z,11.00
2017-12-25T12:41:53.268Z,11.00
2017-12-25T12:44:20.848Z,11.00
2017-12-25T12:46:49.232Z,11.00
2017-12-25T12:49:17.595Z,11.00
2017-12-25T12:51:45.265Z,11.00
2017-12-25T12:54:13.636Z,11.00
2017-12-25T12:56:41.300Z,11.00
2017-12-25T12:59:08.963Z,11.00
2017-12-25T13:01:38.161Z,10.90
2017-12-25T13:04:05.805Z,10.90
2017-12-25T13:06:33.487Z,10.90
2017-12-25T13:09:01.077Z,10.90
2017-12-25T13:11:29.448Z,10.90
2017-12-25T13:13:57.797Z,10.90
2017-12-25T13:16:25.409Z,10.90
2017-12-25T13:18:53.036Z,10.90
2017-12-25T13:21:20.688Z,10.90
2017-12-25T13:23:48.267Z,10.90
2017-12-25T13:26:16.621Z,10.90
2017-12-25T13:28:44.247Z,10.90
2017-12-25T13:31:11.863Z,10.90
2017-12-25T13:33:39.515Z,10.90
2017-12-25T13:36:07.868Z,10.80
2017-12-25T13:38:35.471Z,10.80
2017-12-25T13:41:03.836Z,10.80
2017-12-25T13:43:31.501Z,10.80
2017-12-25T13:45:59.088Z,10.80
2017-12-25T13:48:27.468Z,10.80
2017-12-25T13:50:55.825Z,10.90
2017-12-25T13:53:23.494Z,10.90
2017-12-25T13:55:51.849Z,10.90
2017-12-25T13:58:19.456Z,10.90
2017-12-25T14:00:47.052Z,10.80
2017-12-25T14:03:14.656Z,10.80
2017-12-25T14:05:42.316Z,10.80
2017-12-25T14:08:09.968Z,10.80
2017-12-25T14:10:37.642Z,10.80
2017-12-25T14:13:05.305Z,10.80
2017-12-25T14:15:32.959Z,10.80
2017-12-25T14:18:00.536Z,10.90
2017-12-25T14:20:28.913Z,11.00
2017-12-25T14:22:57.280Z,11.00
2017-12-25T14:25:24.944Z,11.00
2017-12-25T14:27:52.523Z,11.00
2017-12-25T14:30:20.901Z,11.10
2017-12-25T14:32:49.248Z,11.00
2017-12-25T14:35:16.853Z,11.10
2017-12-25T14:37:44.440Z,11.10
2017-12-25T14:40:12.044Z,11.10
2017-12-25T14:42:39.713Z,11.10
2017-12-25T14:45:07.345Z,11.00
2017-12-25T14:47:34.933Z,11.00
2017-12-25T14:50:02.588Z,11.00
2017-12-25T14:52:30.200Z,11.00
2017-12-25T14:54:57.786Z,11.00
2017-12-25T14:57:25.397Z,11.00
2017-12-25T14:59:53.854Z,11.00
2017-12-25T15:02:21.456Z,11.00
2017-12-25T15:04:49.084Z,11.00
2017-12-25T15:07:16.688Z,11.00
2017-12-25T15:09:44.319Z,10.90
2017-12-25T15:12:12.784Z,10.90
2017-12-25T15:14:40.365Z,10.90
2017-12-25T15:17:08.741Z,10.90
2017-12-25T15:19:37.213Z,10.90
2017-12-25T15:22:04.826Z,10.90
2017-12-25T15:24:32.412Z,10.90
2017-12-25T15:27:00.036Z,10.90
2017-12-25T15:29:27.652Z,10.90
2017-12-25T15:31:55.241Z,10.90
2017-12-25T15:34:23.606Z,10.90
2017-12-25T15:36:51.261Z,10.90
2017-12-25T15:39:18.875Z,10.90
2017-12-25T15:41:46.476Z,10.90
2017-12-25T15:44:14.852Z,10.90
2017-12-25T15:46:42.440Z,10.80
2017-12-25T15:49:10.899Z,10.90
2017-12-25T15:51:38.485Z,10.90
2017-12-25T15:54:06.851Z,10.90
2017-12-25T15:56:34.440Z,10.90
2017-12-25T15:59:02.068Z,10.90
2017-12-25T16:01:29.724Z,10.90
2017-12-25T16:03:57.397Z,10.90
2017-12-25T16:06:25.062Z,10.90
2017-12-25T16:08:52.708Z,10.90
2017-12-25T16:11:21.076Z,10.90
2017-12-25T16:13:48.655Z,10.90
2017-12-25T16:16:16.260Z,10.90
2017-12-25T16:18:43.844Z,10.90
2017-12-25T16:21:11.448Z,10.90
2017-12-25T16:23:39.101Z,10.90
2017-12-25T16:26:06.708Z,10.90
2017-12-25T16:28:34.297Z,10.90
2017-12-25T16:31:01.909Z,10.90
2017-12-25T16:33:30.373Z,10.90
2017-12-25T16:35:58.758Z,10.90
2017-12-25T16:38:26.359Z,10.90
2017-12-25T16:40:53.986Z,10.90
2017-12-25T16:43:22.357Z,10.90
2017-12-25T16:45:50.048Z,10.90
2017-12-25T16:48:18.493Z,10.90
2017-12-25T16:50:46.075Z,10.90
2017-12-25T16:53:14.445Z,10.90
2017-12-25T16:55:42.028Z,10.90
2017-12-25T16:58:10.480Z,10.90
2017-12-25T17:00:38.073Z,10.90
2017-12-25T17:03:05.681Z,10.90
2017-12-25T17:05:33.267Z,10.90
2017-12-25T17:08:00.930Z,10.90
2017-12-25T17:10:28.589Z,10.90
2017-12-25T17:12:56.203Z,10.90
2017-12-25T17:15:23.780Z,10.90
2017-12-25T17:17:51.396Z,10.90
2017-12-25T17:20:18.999Z,11.00
2017-12-25T17:22:46.603Z,11.00
2017-12-25T17:25:14.253Z,11.00
2017-12-25T17:27:41.878Z,11.00
2017-12-25T17:30:09.575Z,11.00
2017-12-25T17:32:37.241Z,11.00
2017-12-25T17:35:04.899Z,11.00
2017-12-25T17:37:32.479Z,11.00
2017-12-25T17:40:00.847Z,11.00
2017-12-25T17:42:28.444Z,11.00
2017-12-25T17:44:56.053Z,11.00
2017-12-25T17:47:23.644Z,11.00
2017-12-25T17:49:52.024Z,11.00
2017-12-25T17:52:20.376Z,11.00
2017-12-25T17:54:48.541Z,11.00
2017-12-25T17:57:16.223Z,11.00
2017-12-25T17:59:43.865Z,11.00
2017-12-25T18:02:11.461Z,10.90
2017-12-25T18:04:39.886Z,10.90
2017-12-25T18:07:07.468Z,10.90
2017-12-25T18:09:35.161Z,10.80
2017-12-25T18:12:02.749Z,10.90
2017-12-25T18:14:30.340Z,10.90
2017-12-25T18:16:57.943Z,10.90
2017-12-25T18:19:25.596Z,10.90
2017-12-25T18:21:53.209Z,10.90
2017-12-25T18:24:20.801Z,10.90
2017-12-25T18:26:48.548Z,10.90
2017-12-25T18:29:16.128Z,10.90
2017-12-25T18:31:43.813Z,10.90
2017-12-25T18:34:11.473Z,10.90
2017-12-25T18:36:39.071Z,10.90
2017-12-25T18:39:06.661Z,10.90
2017-12-25T18:41:34.369Z,10.90
2017-12-25T18:44:01.956Z,10.90
2017-12-25T18:46:29.569Z,10.90
2017-12-25T18:48:57.161Z,10.90
2017-12-25T18:51:25.545Z,10.90
2017-12-25T18:53:53.897Z,10.90
2017-12-25T18:56:22.246Z,10.90
2017-12-25T18:58:49.953Z,10.90
2017-12-25T19:01:18.304Z,10.90
2017-12-25T19:03:45.944Z,10.90
2017-12-25T19:06:13.532Z,10.90
2017-12-25T19:08:41.214Z,10.90
2017-12-25T19:11:08.881Z,10.80
2017-12-25T19:13:36.489Z,10.80
2017-12-25T19:16:04.101Z,10.70
2017-12-25T19:18:31.764Z,10.70
2017-12-25T19:20:59.352Z,10.70
2017-12-25T19:23:27.728Z,10.70
2017-12-25T19:25:56.242Z,10.70
2017-12-25T19:28:23.949Z,10.60
2017-12-25T19:30:51.528Z,10.70
2017-12-25T19:33:19.908Z,10.70
2017-12-25T19:35:47.521Z,10.70
2017-12-25T19:38:15.113Z,10.70
2017-12-25T19:40:42.725Z,10.70
2017-12-25T19:43:10.732Z,10.70
2017-12-25T19:45:38.339Z,10.70
2017-12-25T19:48:05.923Z,10.70
2017-12-25T19:50:33.528Z,10.70
2017-12-25T19:53:01.196Z,10.70
2017-12-25T19:55:29.578Z,10.70
2017-12-25T19:57:57.169Z,10.70
2017-12-25T20:00:24.772Z,10.70
2017-12-25T20:02:52.351Z,10.70
2017-12-25T20:05:20.017Z,10.70
2017-12-25T20:07:47.672Z,10.70
2017-12-25T20:10:15.337Z,10.70
2017-12-25T20:12:42.936Z,10.70
2017-12-25T20:15:10.540Z,10.70
2017-12-25T20:17:38.220Z,10.70
2017-12-25T20:20:07.341Z,10.80
2017-12-25T20:22:35.801Z,10.80
2017-12-25T20:25:03.475Z,10.80
2017-12-25T20:27:31.828Z,10.90
2017-12-25T20:29:59.406Z,10.90
2017-12-25T20:32:28.666Z,10.90
2017-12-25T20:34:56.253Z,10.90
2017-12-25T20:37:23.867Z,10.90
2017-12-25T20:39:51.457Z,10.90
2017-12-25T20:42:19.156Z,10.90
2017-12-25T20:44:46.821Z,10.90
2017-12-25T20:47:14.481Z,10.90
2017-12-25T20:49:42.073Z,10.80
2017-12-25T20:52:09.725Z,10.80
2017-12-25T20:54:38.189Z,10.80
2017-12-25T20:57:05.849Z,10.80
2017-12-25T20:59:33.504Z,10.80
2017-12-25T21:02:01.993Z,10.80
2017-12-25T21:04:29.659Z,10.80
2017-12-25T21:06:57.259Z,10.70
2017-12-25T21:09:25.588Z,10.70
2017-12-25T21:11:53.261Z,10.80
2017-12-25T21:14:20.920Z,10.70
2017-12-25T21:16:48.575Z,10.80
2017-12-25T21:19:16.249Z,10.70
2017-12-25T21:21:43.860Z,10.70
2017-12-25T21:24:11.459Z,10.80
2017-12-25T21:26:39.839Z,10.70
2017-12-25T21:29:07.513Z,10.70
2017-12-25T21:31:36.608Z,10.60
2017-12-25T21:34:04.221Z,10.60
2017-12-25T21:36:31.804Z,10.70
2017-12-25T21:38:59.496Z,10.60
2017-12-25T21:41:27.147Z,10.60
2017-12-25T21:43:55.532Z,10.60
2017-12-25T21:46:23.167Z,10.60
2017-12-25T21:48:50.865Z,10.60
2017-12-25T21:51:19.969Z,10.50
2017-12-25T21:53:48.358Z,10.50
2017-12-25T21:56:16.104Z,10.50
2017-12-25T21:58:43.768Z,10.50
2017-12-25T22:01:11.376Z,10.50
2017-12-25T22:03:39.047Z,10.50
2017-12-25T22:06:06.745Z,10.50
2017-12-25T22:08:34.328Z,10.50
2017-12-25T22:11:02.696Z,10.40
2017-12-25T22:13:30.353Z,10.40
2017-12-25T22:15:58.021Z,10.30
2017-12-25T22:18:25.607Z,10.40
2017-12-25T22:20:54.065Z,10.30
2017-12-25T22:23:21.653Z,10.30
2017-12-25T22:25:49.264Z,10.30
2017-12-25T22:28:16.843Z,10.30
2017-12-25T22:30:44.468Z,10.30
2017-12-25T22:33:12.057Z,10.30
2017-12-25T22:35:40.449Z,10.30
2017-12-25T22:38:08.060Z,10.30
2017-12-25T22:40:35.672Z,10.30
2017-12-25T22:43:03.276Z,10.30
2017-12-25T22:45:30.868Z,10.20
2017-12-25T22:47:58.480Z,10.20
2017-12-25T22:50:26.832Z,10.30
2017-12-25T22:52:54.446Z,10.20
2017-12-25T22:55:22.032Z,10.20
2017-12-25T22:57:49.648Z,10.20
2017-12-25T23:00:17.276Z,10.20
2017-12-25T23:02:44.909Z,10.20
2017-12-25T23:05:12.496Z,10.10
2017-12-25T23:07:40.159Z,10.10
2017-12-25T23:10:08.649Z,10.10
2017-12-25T23:12:37.753Z,10.00
2017-12-25T23:15:06.134Z,10.00
2017-12-25T23:17:34.595Z,10.00
2017-12-25T23:20:03.712Z,10.00
2017-12-25T23:22:32.069Z,10.00
2017-12-25T23:24:59.752Z,10.00
2017-12-25T23:27:28.104Z,10.00
2017-12-25T23:29:55.717Z,10.00
2017-12-25T23:32:23.340Z,10.00
2017-12-25T23:34:51.717Z,10.00
2017-12-25T23:37:19.384Z,10.00
2017-12-25T23:39:47.057Z,10.00
2017-12-25T23:42:15.409Z,9.90
2017-12-25T23:44:43.082Z,9.90
2017-12-25T23:47:10.743Z,9.90
2017-12-25T23:49:38.412Z,9.90
2017-12-25T23:52:07.525Z,9.90
2017-12-25T23:54:35.876Z,9.80
2017-12-25T23:57:03.480Z,9.80
2017-12-25T23:59:31.932Z,9.70
